createdAt,value
2018-01-28T05:00:38.738Z,0
2018-01-28T05:01:04.194Z,0
2018-01-28T05:01:29.733Z,0
2018-01-28T05:01:55.155Z,0
2018-01-28T05:02:20.668Z,0
2018-01-28T05:02:46.199Z,0
2018-01-28T05:03:11.609Z,0
2018-01-28T05:03:37.108Z,0
2018-01-28T05:04:02.616Z,0
2018-01-28T05:04:28.113Z,0
2018-01-28T05:04:53.611Z,0
2018-01-28T05:05:19.086Z,0
2018-01-28T05:05:44.571Z,0
2018-01-28T05:06:10.033Z,0
2018-01-28T05:06:35.581Z,0
2018-01-28T05:07:01.099Z,0
2018-01-28T05:08:20.038Z,0
2018-01-28T05:08:45.558Z,0
2018-01-28T05:09:11.014Z,0
2018-01-28T05:09:36.554Z,0
2018-01-28T05:10:02.083Z,0
2018-01-28T05:10:27.550Z,0
2018-01-28T05:10:53.019Z,0
2018-01-28T05:11:18.509Z,0
2018-01-28T05:11:43.993Z,0
2018-01-28T05:12:09.449Z,0
2018-01-28T05:12:34.949Z,0
2018-01-28T05:13:00.425Z,0
2018-01-28T05:13:25.948Z,0
2018-01-28T05:13:51.432Z,0
2018-01-28T05:14:16.901Z,0
2018-01-28T05:14:42.335Z,0
2018-01-28T05:15:59.612Z,0
2018-01-28T05:16:25.152Z,0
2018-01-28T05:16:50.625Z,0
2018-01-28T05:17:16.105Z,0
2018-01-28T05:17:41.590Z,0
2018-01-28T05:18:07.089Z,0
2018-01-28T05:18:32.582Z,0
2018-01-28T05:18:58.060Z,0
2018-01-28T05:19:23.565Z,0
2018-01-28T05:19:49.022Z,0
2018-01-28T05:20:14.573Z,0
2018-01-28T05:20:40.077Z,0
2018-01-28T05:21:05.594Z,0
2018-01-28T05:21:31.058Z,0
2018-01-28T05:21:56.573Z,0
2018-01-28T05:22:22.121Z,0
2018-01-28T05:22:47.593Z,0
2018-01-28T05:23:13.030Z,0
2018-01-28T05:23:38.503Z,0
2018-01-28T05:24:04.013Z,0
2018-01-28T05:24:29.446Z,0
2018-01-28T05:24:54.901Z,0
2018-01-28T05:25:20.398Z,0
2018-01-28T05:25:45.877Z,0
2018-01-28T05:26:11.375Z,0
2018-01-28T05:26:36.872Z,0
2018-01-28T05:27:02.353Z,0
2018-01-28T05:27:27.828Z,0
2018-01-28T05:27:53.338Z,0
2018-01-28T05:28:18.795Z,0
2018-01-28T05:28:44.263Z,0
2018-01-28T05:29:09.737Z,0
2018-01-28T05:29:35.348Z,0
2018-01-28T05:30:00.807Z,0
2018-01-28T05:30:26.309Z,0
2018-01-28T05:30:51.784Z,0
2018-01-28T05:31:17.240Z,0
2018-01-28T05:31:42.727Z,0
2018-01-28T05:32:08.197Z,0
2018-01-28T05:32:33.684Z,0
2018-01-28T05:32:59.154Z,0
2018-01-28T05:33:24.626Z,0
2018-01-28T05:33:50.091Z,0
2018-01-28T05:34:15.587Z,0
2018-01-28T05:34:41.070Z,0
2018-01-28T05:35:59.961Z,0
2018-01-28T05:36:25.577Z,0
2018-01-28T05:36:51.062Z,0
2018-01-28T05:37:16.557Z,0
2018-01-28T05:37:42.024Z,0
2018-01-28T05:38:07.494Z,0
2018-01-28T05:38:32.991Z,0
2018-01-28T05:38:58.541Z,0
2018-01-28T05:40:12.296Z,0
2018-01-28T05:40:37.766Z,0
2018-01-28T05:41:51.586Z,0
2018-01-28T05:42:17.064Z,0
2018-01-28T05:42:42.544Z,0
2018-01-28T05:43:08.043Z,0
2018-01-28T05:43:33.563Z,0
2018-01-28T05:43:59.019Z,0
2018-01-28T05:44:24.478Z,0
2018-01-28T05:44:49.969Z,0
2018-01-28T05:45:15.458Z,0
2018-01-28T05:46:23.671Z,0
2018-01-28T05:46:49.180Z,0
2018-01-28T05:47:14.669Z,0
2018-01-28T05:47:40.175Z,0
2018-01-28T05:48:05.640Z,0
2018-01-28T05:49:24.563Z,0
2018-01-28T05:49:50.048Z,0
2018-01-28T05:50:15.541Z,0
2018-01-28T05:50:41.024Z,0
2018-01-28T05:51:06.508Z,0
2018-01-28T05:51:32.013Z,0
2018-01-28T05:51:57.457Z,0
2018-01-28T05:52:22.902Z,0
2018-01-28T05:52:48.375Z,0
2018-01-28T05:53:13.859Z,0
2018-01-28T05:53:39.377Z,0
2018-01-28T05:54:04.874Z,0
2018-01-28T05:54:30.357Z,0
2018-01-28T05:54:55.827Z,0
2018-01-28T05:55:21.304Z,0
2018-01-28T05:55:46.859Z,0
2018-01-28T05:56:12.254Z,0
2018-01-28T05:56:37.721Z,0
2018-01-28T05:57:03.243Z,0
2018-01-28T05:57:28.720Z,0
2018-01-28T05:57:54.204Z,0
2018-01-28T05:58:19.709Z,0
2018-01-28T05:58:45.220Z,0
2018-01-28T05:59:10.684Z,0
2018-01-28T05:59:36.139Z,0
2018-01-28T06:00:55.084Z,0
2018-01-28T06:02:14.056Z,0
2018-01-28T06:02:39.531Z,0
2018-01-28T06:03:05.040Z,0
2018-01-28T06:03:30.532Z,0
2018-01-28T06:03:55.994Z,0
2018-01-28T06:04:21.498Z,0
2018-01-28T06:04:47.018Z,0
2018-01-28T06:05:12.492Z,0
2018-01-28T06:05:38.007Z,0
2018-01-28T06:06:03.515Z,0
2018-01-28T06:06:28.994Z,0
2018-01-28T06:06:54.492Z,0
2018-01-28T06:07:20.019Z,0
2018-01-28T06:07:45.479Z,0
2018-01-28T06:08:10.954Z,0
2018-01-28T06:08:36.425Z,0
2018-01-28T06:09:01.867Z,0
2018-01-28T06:09:27.389Z,0
2018-01-28T06:09:52.866Z,0
2018-01-28T06:10:18.353Z,0
2018-01-28T06:10:43.923Z,0
2018-01-28T06:11:09.379Z,0
2018-01-28T06:11:34.850Z,0
2018-01-28T06:12:00.299Z,0
2018-01-28T06:12:25.790Z,0
2018-01-28T06:13:39.559Z,0
2018-01-28T06:14:05.068Z,0
2018-01-28T06:14:30.574Z,0
2018-01-28T06:14:56.044Z,0
2018-01-28T06:15:21.520Z,0
2018-01-28T06:15:47.032Z,0
2018-01-28T06:16:12.520Z,0
2018-01-28T06:16:38.013Z,0
2018-01-28T06:17:03.507Z,0
2018-01-28T06:17:28.983Z,0
2018-01-28T06:17:54.505Z,0
2018-01-28T06:18:19.997Z,0
2018-01-28T06:18:45.469Z,0
2018-01-28T06:19:10.972Z,0
2018-01-28T06:19:36.465Z,0
2018-01-28T06:20:01.967Z,0
2018-01-28T06:20:27.515Z,0
2018-01-28T06:20:52.942Z,0
2018-01-28T06:21:18.440Z,0
2018-01-28T06:21:43.941Z,0
2018-01-28T06:22:09.423Z,0
2018-01-28T06:22:34.897Z,0
2018-01-28T06:23:00.391Z,0
2018-01-28T06:23:25.875Z,0
2018-01-28T06:23:51.338Z,0
2018-01-28T06:24:16.829Z,0
2018-01-28T06:24:42.312Z,0
2018-01-28T06:25:07.798Z,0
2018-01-28T06:25:33.305Z,0
2018-01-28T06:25:58.772Z,0
2018-01-28T06:26:24.299Z,0
2018-01-28T06:26:49.838Z,0
2018-01-28T06:27:15.349Z,0
2018-01-28T06:27:40.873Z,0
2018-01-28T06:28:06.373Z,0
2018-01-28T06:28:31.886Z,0
2018-01-28T06:28:57.378Z,0
2018-01-28T06:29:22.862Z,0
2018-01-28T06:29:48.342Z,0
2018-01-28T06:31:01.678Z,0
2018-01-28T06:31:27.146Z,0
2018-01-28T06:31:52.638Z,0
2018-01-28T06:32:18.155Z,0
2018-01-28T06:32:43.650Z,0
2018-01-28T06:33:09.113Z,0
2018-01-28T06:33:34.588Z,0
2018-01-28T06:34:53.484Z,0
2018-01-28T06:35:19.002Z,0
2018-01-28T06:35:44.494Z,0
2018-01-28T06:36:10.006Z,0
2018-01-28T06:36:35.488Z,0
2018-01-28T06:37:00.976Z,0
2018-01-28T06:37:26.527Z,0
2018-01-28T06:38:40.273Z,0
2018-01-28T06:39:05.778Z,0
2018-01-28T06:39:31.241Z,0
2018-01-28T06:39:56.738Z,0
2018-01-28T06:41:00.345Z,0
2018-01-28T06:41:25.848Z,0
2018-01-28T06:41:51.351Z,0
2018-01-28T06:42:16.846Z,0
2018-01-28T06:42:42.368Z,0
2018-01-28T06:43:07.876Z,0
2018-01-28T06:43:33.366Z,0
2018-01-28T06:43:58.893Z,0
2018-01-28T06:44:24.461Z,0
2018-01-28T06:44:50.000Z,0
2018-01-28T06:45:15.490Z,0
2018-01-28T06:45:40.978Z,0
2018-01-28T06:46:06.423Z,0
2018-01-28T06:46:31.939Z,0
2018-01-28T06:46:57.416Z,0
2018-01-28T06:48:21.461Z,0
2018-01-28T06:48:46.952Z,0
2018-01-28T06:49:12.475Z,0
2018-01-28T06:49:37.931Z,0
2018-01-28T06:50:03.404Z,0
2018-01-28T06:50:28.975Z,0
2018-01-28T06:50:54.433Z,0
2018-01-28T06:51:19.922Z,0
2018-01-28T06:51:45.530Z,0
2018-01-28T06:53:04.455Z,4
2018-01-28T06:53:29.934Z,4
2018-01-28T06:53:55.478Z,4
2018-01-28T06:54:20.951Z,4
2018-01-28T06:54:46.416Z,4
2018-01-28T06:55:11.912Z,4
2018-01-28T06:55:37.411Z,4
2018-01-28T06:56:02.948Z,4
2018-01-28T06:56:28.465Z,4
2018-01-28T06:56:53.960Z,4
2018-01-28T06:57:19.499Z,4
2018-01-28T06:57:45.002Z,4
2018-01-28T06:58:10.435Z,4
2018-01-28T06:58:35.908Z,4
2018-01-28T06:59:01.453Z,8
2018-01-28T06:59:26.968Z,4
2018-01-28T07:00:50.999Z,4
2018-01-28T07:01:16.508Z,4
2018-01-28T07:01:42.003Z,4
2018-01-28T07:02:07.471Z,8
2018-01-28T07:02:32.967Z,8
2018-01-28T07:02:58.449Z,8
2018-01-28T07:03:23.949Z,12
2018-01-28T07:03:49.446Z,8
2018-01-28T07:04:14.944Z,8
2018-01-28T07:04:40.485Z,8
2018-01-28T07:05:05.983Z,8
2018-01-28T07:05:31.449Z,12
2018-01-28T07:05:56.995Z,12
2018-01-28T07:06:22.530Z,8
2018-01-28T07:06:48.048Z,12
2018-01-28T07:07:13.527Z,12
2018-01-28T07:07:39.033Z,12
2018-01-28T07:08:04.610Z,12
2018-01-28T07:08:30.163Z,12
2018-01-28T07:09:43.971Z,16
2018-01-28T07:10:09.457Z,16
2018-01-28T07:10:34.972Z,12
2018-01-28T07:11:00.457Z,16
2018-01-28T07:11:25.961Z,16
2018-01-28T07:11:51.449Z,16
2018-01-28T07:13:05.244Z,16
2018-01-28T07:13:30.744Z,16
2018-01-28T07:13:56.222Z,20
2018-01-28T07:15:20.305Z,20
2018-01-28T07:15:45.807Z,28
2018-01-28T07:16:11.291Z,28
2018-01-28T07:16:36.782Z,24
2018-01-28T07:17:45.501Z,28
2018-01-28T07:18:10.998Z,32
2018-01-28T07:18:36.497Z,32
2018-01-28T07:19:01.974Z,32
2018-01-28T07:19:27.439Z,36
2018-01-28T07:19:52.958Z,40
2018-01-28T07:20:18.449Z,40
2018-01-28T07:20:43.922Z,40
2018-01-28T07:21:09.388Z,40
2018-01-28T07:21:34.885Z,40
2018-01-28T07:22:00.376Z,48
2018-01-28T07:22:25.975Z,52
2018-01-28T07:22:51.333Z,56
2018-01-28T07:23:16.890Z,60
2018-01-28T07:23:42.383Z,64
2018-01-28T07:24:07.916Z,60
2018-01-28T07:24:33.432Z,56
2018-01-28T07:24:58.879Z,44
2018-01-28T07:25:24.461Z,52
2018-01-28T07:25:49.952Z,56
2018-01-28T07:26:15.463Z,56
2018-01-28T07:26:40.948Z,48
2018-01-28T07:27:06.459Z,56
2018-01-28T07:27:32.046Z,56
2018-01-28T07:27:57.826Z,52
2018-01-28T07:28:23.330Z,56
2018-01-28T07:28:49.046Z,52
2018-01-28T07:29:14.641Z,48
2018-01-28T07:29:40.255Z,52
2018-01-28T07:30:05.766Z,60
2018-01-28T07:30:31.326Z,64
2018-01-28T07:30:56.923Z,72
2018-01-28T07:31:22.388Z,80
2018-01-28T07:31:47.997Z,92
2018-01-28T07:32:14.649Z,112
2018-01-28T07:32:40.062Z,108
2018-01-28T07:33:05.512Z,120
2018-01-28T07:33:31.012Z,144
2018-01-28T07:33:56.457Z,164
2018-01-28T07:34:21.946Z,176
2018-01-28T07:35:35.726Z,100
2018-01-28T07:36:01.207Z,100
2018-01-28T07:36:26.749Z,100
2018-01-28T07:36:52.197Z,92
2018-01-28T07:37:17.713Z,76
2018-01-28T07:37:43.189Z,80
2018-01-28T07:38:08.677Z,80
2018-01-28T07:38:34.288Z,72
2018-01-28T07:38:59.797Z,64
2018-01-28T07:39:25.331Z,64
2018-01-28T07:39:50.794Z,76
2018-01-28T07:40:16.298Z,88
2018-01-28T07:40:41.745Z,112
2018-01-28T07:41:07.230Z,136
2018-01-28T07:41:32.742Z,152
2018-01-28T07:41:58.295Z,156
2018-01-28T07:42:23.906Z,156
2018-01-28T07:42:49.412Z,176
2018-01-28T07:43:14.930Z,240
2018-01-28T07:43:40.438Z,268
2018-01-28T07:44:05.944Z,272
2018-01-28T07:44:31.445Z,352
2018-01-28T07:44:56.965Z,332
2018-01-28T07:45:22.469Z,336
2018-01-28T07:45:48.389Z,320
2018-01-28T07:46:14.006Z,284
2018-01-28T07:46:39.471Z,220
2018-01-28T07:47:05.031Z,212
2018-01-28T07:47:30.484Z,200
2018-01-28T07:47:56.164Z,176
2018-01-28T07:49:15.022Z,172
2018-01-28T07:49:40.549Z,192
2018-01-28T07:50:06.032Z,208
2018-01-28T07:50:31.533Z,176
2018-01-28T07:50:57.046Z,168
2018-01-28T07:51:22.515Z,208
2018-01-28T07:51:48.012Z,224
2018-01-28T07:52:56.710Z,260
2018-01-28T07:53:22.197Z,312
2018-01-28T07:53:47.716Z,444
2018-01-28T07:54:13.247Z,456
2018-01-28T07:54:38.692Z,392
2018-01-28T07:55:04.182Z,368
2018-01-28T07:55:29.694Z,436
2018-01-28T07:55:55.166Z,420
2018-01-28T07:56:20.769Z,352
2018-01-28T07:56:46.292Z,440
2018-01-28T07:57:11.807Z,412
2018-01-28T07:57:37.323Z,460
2018-01-28T07:58:02.815Z,472
2018-01-28T07:58:28.297Z,412
2018-01-28T07:58:53.801Z,328
2018-01-28T07:59:19.343Z,356
2018-01-28T07:59:44.861Z,320
2018-01-28T08:00:10.352Z,344
2018-01-28T08:00:35.871Z,356
2018-01-28T08:01:01.368Z,336
2018-01-28T08:01:26.868Z,348
2018-01-28T08:01:52.349Z,356
2018-01-28T08:02:17.821Z,324
2018-01-28T08:02:43.287Z,368
2018-01-28T08:03:08.879Z,416
2018-01-28T08:03:34.307Z,516
2018-01-28T08:03:59.812Z,564
2018-01-28T08:04:25.292Z,580
2018-01-28T08:04:50.763Z,572
2018-01-28T08:05:16.268Z,764
2018-01-28T08:05:41.795Z,748
2018-01-28T08:06:07.321Z,572
2018-01-28T08:06:32.815Z,472
2018-01-28T08:06:58.302Z,392
2018-01-28T08:08:02.244Z,316
2018-01-28T08:08:27.751Z,284
2018-01-28T08:08:53.238Z,272
2018-01-28T08:09:18.744Z,272
2018-01-28T08:09:44.271Z,248
2018-01-28T08:10:09.772Z,244
2018-01-28T08:10:35.323Z,256
2018-01-28T08:11:00.833Z,316
2018-01-28T08:11:26.324Z,384
2018-01-28T08:11:51.827Z,412
2018-01-28T08:12:17.286Z,460
2018-01-28T08:12:42.812Z,456
2018-01-28T08:13:08.289Z,500
2018-01-28T08:13:33.773Z,580
2018-01-28T08:13:59.301Z,572
2018-01-28T08:14:24.783Z,580
2018-01-28T08:14:50.299Z,536
2018-01-28T08:15:15.785Z,572
2018-01-28T08:15:41.303Z,620
2018-01-28T08:16:06.897Z,700
2018-01-28T08:16:32.336Z,640
2018-01-28T08:16:57.856Z,648
2018-01-28T08:17:23.384Z,640
2018-01-28T08:17:48.898Z,592
2018-01-28T08:18:14.423Z,580
2018-01-28T08:18:39.904Z,628
2018-01-28T08:19:05.422Z,624
2018-01-28T08:19:30.894Z,672
2018-01-28T08:19:56.377Z,744
2018-01-28T08:20:21.879Z,812
2018-01-28T08:20:47.400Z,804
2018-01-28T08:21:12.885Z,980
2018-01-28T08:21:38.357Z,948
2018-01-28T08:22:03.888Z,896
2018-01-28T08:22:29.380Z,816
2018-01-28T08:22:54.861Z,848
2018-01-28T08:23:20.355Z,988
2018-01-28T08:23:45.819Z,840
2018-01-28T08:24:11.285Z,784
2018-01-28T08:24:36.765Z,828
2018-01-28T08:25:02.218Z,852
2018-01-28T08:25:27.696Z,876
2018-01-28T08:25:53.199Z,776
2018-01-28T08:26:18.709Z,740
2018-01-28T08:26:44.229Z,752
2018-01-28T08:27:09.737Z,832
2018-01-28T08:27:35.249Z,732
2018-01-28T08:28:00.750Z,900
2018-01-28T08:28:26.226Z,1000
2018-01-28T08:28:51.738Z,1296
2018-01-28T08:29:17.241Z,1316
2018-01-28T08:29:42.746Z,1336
2018-01-28T08:30:08.267Z,1168
2018-01-28T08:30:33.692Z,900
2018-01-28T08:30:59.190Z,796
2018-01-28T08:31:24.737Z,932
2018-01-28T08:31:50.266Z,988
2018-01-28T08:32:15.770Z,1032
2018-01-28T08:32:41.220Z,940
2018-01-28T08:33:06.774Z,888
2018-01-28T08:33:32.253Z,792
2018-01-28T08:33:57.765Z,768
2018-01-28T08:34:23.280Z,636
2018-01-28T08:34:48.764Z,680
2018-01-28T08:35:14.220Z,832
2018-01-28T08:35:39.708Z,752
2018-01-28T08:36:05.195Z,616
2018-01-28T08:36:30.667Z,532
2018-01-28T08:36:56.181Z,540
2018-01-28T08:37:21.698Z,540
2018-01-28T08:37:47.297Z,560
2018-01-28T08:38:12.800Z,504
2018-01-28T08:38:38.263Z,448
2018-01-28T08:39:52.061Z,524
2018-01-28T08:40:17.543Z,492
2018-01-28T08:40:43.024Z,444
2018-01-28T08:41:08.542Z,408
2018-01-28T08:41:34.004Z,452
2018-01-28T08:42:52.934Z,696
2018-01-28T08:43:18.417Z,712
2018-01-28T08:43:43.952Z,756
2018-01-28T08:44:09.445Z,804
2018-01-28T08:44:34.954Z,796
2018-01-28T08:45:00.430Z,760
2018-01-28T08:45:25.947Z,700
2018-01-28T08:45:51.402Z,692
2018-01-28T08:46:16.909Z,660
2018-01-28T08:46:42.398Z,588
2018-01-28T08:47:07.876Z,592
2018-01-28T08:47:33.339Z,592
2018-01-28T08:48:42.052Z,664
2018-01-28T08:49:07.561Z,620
2018-01-28T08:49:33.034Z,612
2018-01-28T08:49:58.496Z,628
2018-01-28T08:50:23.974Z,644
2018-01-28T08:50:49.498Z,672
2018-01-28T08:52:08.402Z,776
2018-01-28T08:52:33.896Z,848
2018-01-28T08:52:59.417Z,944
2018-01-28T08:53:24.893Z,1000
2018-01-28T08:53:50.421Z,924
2018-01-28T08:54:16.013Z,884
2018-01-28T08:54:41.508Z,880
2018-01-28T08:55:07.010Z,856
2018-01-28T08:56:15.759Z,816
2018-01-28T08:56:41.216Z,956
2018-01-28T08:57:06.678Z,1096
2018-01-28T08:57:32.176Z,1128
2018-01-28T08:57:57.662Z,1112
2018-01-28T08:58:23.159Z,1136
2018-01-28T08:58:58.571Z,1204
2018-01-28T09:00:04.685Z,1004
2018-01-28T09:00:32.173Z,1004
2018-01-28T09:01:01.698Z,1056
2018-01-28T09:01:27.207Z,1092
2018-01-28T09:01:52.683Z,1220
2018-01-28T09:02:18.178Z,1288
2018-01-28T09:02:43.668Z,1252
2018-01-28T09:03:09.094Z,1324
2018-01-28T09:03:34.587Z,1304
2018-01-28T09:04:00.548Z,1288
2018-01-28T09:04:27.074Z,1224
2018-01-28T09:04:52.305Z,1152
2018-01-28T09:05:17.954Z,1208
2018-01-28T09:05:43.341Z,1084
2018-01-28T09:06:08.813Z,1148
2018-01-28T09:07:20.409Z,1164
2018-01-28T09:07:45.261Z,1360
2018-01-28T09:08:11.528Z,1380
2018-01-28T09:08:36.983Z,1352
2018-01-28T09:09:02.693Z,1376
2018-01-28T09:09:28.162Z,1408
2018-01-28T09:09:54.316Z,1348
2018-01-28T09:10:19.872Z,1340
2018-01-28T09:10:45.457Z,1420
2018-01-28T09:11:11.132Z,1320
2018-01-28T09:11:36.499Z,1280
2018-01-28T09:12:02.031Z,1304
2018-01-28T09:12:27.610Z,1284
2018-01-28T09:12:53.124Z,1292
2018-01-28T09:13:18.513Z,1336
2018-01-28T09:13:43.939Z,1232
2018-01-28T09:14:09.381Z,1376
2018-01-28T09:14:34.925Z,1152
2018-01-28T09:15:01.019Z,1136
2018-01-28T09:15:26.711Z,1144
2018-01-28T09:15:56.683Z,1080
2018-01-28T09:16:19.897Z,1112
2018-01-28T09:16:45.334Z,1152
2018-01-28T09:17:10.782Z,1108
2018-01-28T09:17:36.802Z,1040
2018-01-28T09:18:02.101Z,1028
2018-01-28T09:18:27.574Z,956
2018-01-28T09:18:53.095Z,1004
2018-01-28T09:19:18.696Z,1148
2018-01-28T09:19:44.195Z,1116
2018-01-28T09:20:09.655Z,1196
2018-01-28T09:20:35.122Z,1276
2018-01-28T09:21:00.576Z,1228
2018-01-28T09:21:26.081Z,1176
2018-01-28T09:21:51.573Z,1104
2018-01-28T09:22:16.965Z,1056
2018-01-28T09:22:42.892Z,936
2018-01-28T09:23:08.291Z,848
2018-01-28T09:23:33.949Z,884
2018-01-28T09:23:59.405Z,992
2018-01-28T09:24:24.989Z,1084
2018-01-28T09:24:50.648Z,1096
2018-01-28T09:25:16.226Z,968
2018-01-28T09:25:51.026Z,892
2018-01-28T09:26:16.065Z,908
2018-01-28T09:26:41.706Z,972
2018-01-28T09:27:07.711Z,952
2018-01-28T09:27:33.230Z,948
2018-01-28T09:27:58.766Z,956
2018-01-28T09:28:27.847Z,936
2018-01-28T09:28:53.380Z,856
2018-01-28T09:29:18.931Z,832
2018-01-28T09:29:44.367Z,864
2018-01-28T09:30:09.910Z,792
2018-01-28T09:30:35.394Z,808
2018-01-28T09:31:00.908Z,800
2018-01-28T09:31:26.407Z,756
2018-01-28T09:31:51.986Z,796
2018-01-28T09:32:17.462Z,840
2018-01-28T09:32:42.984Z,804
2018-01-28T09:33:08.500Z,824
2018-01-28T09:33:34.059Z,872
2018-01-28T09:33:59.585Z,960
2018-01-28T09:34:25.076Z,1184
2018-01-28T09:34:50.593Z,1256
2018-01-28T09:35:16.102Z,1264
2018-01-28T09:35:41.629Z,1196
2018-01-28T09:36:07.097Z,1260
2018-01-28T09:36:32.577Z,1328
2018-01-28T09:36:58.109Z,1560
2018-01-28T09:37:23.569Z,1556
2018-01-28T09:37:49.057Z,1344
2018-01-28T09:38:14.583Z,1228
2018-01-28T09:38:40.051Z,1292
2018-01-28T09:39:05.529Z,1332
2018-01-28T09:39:31.053Z,1280
2018-01-28T09:39:56.510Z,1268
2018-01-28T09:40:22.037Z,1208
2018-01-28T09:41:35.908Z,1160
2018-01-28T09:42:01.403Z,1128
2018-01-28T09:42:26.875Z,1152
2018-01-28T09:42:52.394Z,1084
2018-01-28T09:43:17.959Z,1052
2018-01-28T09:43:43.454Z,1100
2018-01-28T09:44:08.979Z,1252
2018-01-28T09:44:34.475Z,1416
2018-01-28T09:44:59.953Z,1472
2018-01-28T09:46:03.577Z,1284
2018-01-28T09:46:29.078Z,1428
2018-01-28T09:46:54.566Z,1500
2018-01-28T09:47:20.054Z,1532
2018-01-28T09:47:45.552Z,1572
2018-01-28T09:48:11.075Z,1520
2018-01-28T09:48:36.555Z,1480
2018-01-28T09:49:02.047Z,1660
2018-01-28T09:49:27.561Z,2016
2018-01-28T09:49:53.050Z,2060
2018-01-28T09:50:18.507Z,2088
2018-01-28T09:50:44.007Z,1924
2018-01-28T09:51:09.534Z,1988
2018-01-28T09:51:35.004Z,2080
2018-01-28T09:52:00.540Z,1864
2018-01-28T09:52:26.038Z,1768
2018-01-28T09:52:51.531Z,1612
2018-01-28T09:53:17.045Z,1520
2018-01-28T09:53:42.523Z,1772
2018-01-28T09:54:08.002Z,1924
2018-01-28T09:54:33.483Z,1988
2018-01-28T09:54:58.970Z,2148
2018-01-28T09:55:24.475Z,2108
2018-01-28T09:55:49.977Z,2152
2018-01-28T09:56:15.471Z,2156
2018-01-28T09:56:40.952Z,1872
2018-01-28T09:57:06.481Z,1800
2018-01-28T09:57:32.000Z,1684
2018-01-28T09:58:45.823Z,1788
2018-01-28T09:59:11.277Z,1884
2018-01-28T09:59:36.810Z,2112
2018-01-28T10:00:02.292Z,2324
2018-01-28T10:00:27.822Z,2188
2018-01-28T10:00:53.352Z,2340
2018-01-28T10:01:18.819Z,2480
2018-01-28T10:01:44.286Z,2472
2018-01-28T10:02:09.792Z,2492
2018-01-28T10:02:35.266Z,2656
2018-01-28T10:03:00.798Z,2456
2018-01-28T10:03:26.244Z,2640
2018-01-28T10:03:51.858Z,2280
2018-01-28T10:04:17.383Z,2216
2018-01-28T10:04:42.849Z,2216
2018-01-28T10:05:08.360Z,2480
2018-01-28T10:05:33.907Z,1920
2018-01-28T10:05:59.429Z,1900
2018-01-28T10:06:24.990Z,1816
2018-01-28T10:06:50.479Z,1640
2018-01-28T10:07:16.074Z,1808
2018-01-28T10:07:41.600Z,1948
2018-01-28T10:08:07.054Z,1756
2018-01-28T10:08:32.584Z,1548
2018-01-28T10:08:58.048Z,1588
2018-01-28T10:09:23.548Z,1476
2018-01-28T10:09:49.071Z,1348
2018-01-28T10:10:14.575Z,1448
2018-01-28T10:10:40.141Z,1600
2018-01-28T10:11:05.665Z,1560
2018-01-28T10:11:31.158Z,1608
2018-01-28T10:11:56.658Z,1820
2018-01-28T10:12:22.169Z,2096
2018-01-28T10:12:47.709Z,1988
2018-01-28T10:13:13.231Z,2044
2018-01-28T10:13:38.782Z,2040
2018-01-28T10:14:04.254Z,2216
2018-01-28T10:14:29.783Z,2468
2018-01-28T10:14:55.338Z,2832
2018-01-28T10:15:20.849Z,3232
2018-01-28T10:15:46.380Z,2948
2018-01-28T10:16:11.942Z,2832
2018-01-28T10:16:37.368Z,2560
2018-01-28T10:17:02.855Z,2532
2018-01-28T10:17:28.355Z,2460
2018-01-28T10:17:53.848Z,2148
2018-01-28T10:19:02.563Z,2276
2018-01-28T10:19:28.040Z,2604
2018-01-28T10:19:53.545Z,2452
2018-01-28T10:20:19.085Z,2204
2018-01-28T10:21:38.060Z,2720
2018-01-28T10:22:03.506Z,2768
2018-01-28T10:22:28.967Z,2964
2018-01-28T10:22:54.441Z,2956
2018-01-28T10:23:19.917Z,2484
2018-01-28T10:23:45.408Z,2148
2018-01-28T10:24:10.938Z,2004
2018-01-28T10:24:36.448Z,2004
2018-01-28T10:25:01.962Z,2116
2018-01-28T10:25:27.447Z,1876
2018-01-28T10:25:52.951Z,1608
2018-01-28T10:26:18.485Z,1500
2018-01-28T10:26:43.948Z,1460
2018-01-28T10:27:09.462Z,1568
2018-01-28T10:27:34.981Z,2000
2018-01-28T10:28:00.527Z,1860
2018-01-28T10:28:26.024Z,2076
2018-01-28T10:28:51.609Z,2032
2018-01-28T10:29:17.149Z,2172
2018-01-28T10:29:42.647Z,2260
2018-01-28T10:30:08.146Z,2700
2018-01-28T10:30:33.726Z,2048
2018-01-28T10:30:59.204Z,2540
2018-01-28T10:31:24.755Z,2588
2018-01-28T10:31:50.264Z,3024
2018-01-28T10:32:15.708Z,3376
2018-01-28T10:32:41.187Z,2920
2018-01-28T10:33:06.691Z,2576
2018-01-28T10:33:32.200Z,2356
2018-01-28T10:33:57.674Z,1868
2018-01-28T10:34:23.156Z,2908
2018-01-28T10:34:48.792Z,3716
2018-01-28T10:35:14.195Z,3552
2018-01-28T10:35:39.742Z,4200
2018-01-28T10:36:05.234Z,3236
2018-01-28T10:36:30.724Z,2576
2018-01-28T10:36:56.231Z,2472
2018-01-28T10:37:21.682Z,2304
2018-01-28T10:37:47.171Z,2732
2018-01-28T10:38:12.640Z,2808
2018-01-28T10:38:38.136Z,1972
2018-01-28T10:39:03.614Z,2124
2018-01-28T10:39:29.114Z,2588
2018-01-28T10:39:54.569Z,2408
2018-01-28T10:40:20.039Z,2832
2018-01-28T10:41:38.972Z,3608
2018-01-28T10:42:04.515Z,3432
2018-01-28T10:42:29.999Z,2724
2018-01-28T10:42:55.498Z,2404
2018-01-28T10:43:21.027Z,2640
2018-01-28T10:43:46.586Z,2360
2018-01-28T10:44:12.125Z,2300
2018-01-28T10:44:37.615Z,2124
2018-01-28T10:45:03.111Z,2040
2018-01-28T10:45:28.644Z,2244
2018-01-28T10:45:54.133Z,2456
2018-01-28T10:46:19.676Z,2108
2018-01-28T10:46:45.208Z,2076
2018-01-28T10:47:10.715Z,2600
2018-01-28T10:48:29.653Z,2084
2018-01-28T10:48:55.160Z,2308
2018-01-28T10:49:20.689Z,1972
2018-01-28T10:49:46.161Z,1884
2018-01-28T10:50:11.649Z,2216
2018-01-28T10:50:37.124Z,2648
2018-01-28T10:51:02.600Z,2212
2018-01-28T10:51:28.116Z,2212
2018-01-28T10:51:53.597Z,2456
2018-01-28T10:52:19.080Z,2300
2018-01-28T10:52:45.052Z,1740
2018-01-28T10:53:10.536Z,1456
2018-01-28T10:53:36.048Z,1432
2018-01-28T10:54:01.484Z,1572
2018-01-28T10:55:25.539Z,1980
2018-01-28T10:55:51.028Z,1632
2018-01-28T10:56:16.506Z,1796
2018-01-28T10:56:42.004Z,1760
2018-01-28T10:57:07.499Z,1436
2018-01-28T10:57:32.982Z,1336
2018-01-28T10:57:58.414Z,1560
2018-01-28T10:58:23.895Z,1980
2018-01-28T10:58:49.379Z,1908
2018-01-28T10:59:14.885Z,2096
2018-01-28T10:59:40.343Z,2024
2018-01-28T11:00:05.816Z,1992
2018-01-28T11:00:31.285Z,1888
2018-01-28T11:00:56.755Z,2040
2018-01-28T11:01:22.266Z,2884
2018-01-28T11:01:47.760Z,3180
2018-01-28T11:02:13.243Z,2864
2018-01-28T11:02:38.688Z,3024
2018-01-28T11:03:04.176Z,3132
2018-01-28T11:03:29.631Z,2792
2018-01-28T11:03:55.156Z,3992
2018-01-28T11:04:20.593Z,3788
2018-01-28T11:04:46.135Z,3348
2018-01-28T11:05:11.634Z,2716
2018-01-28T11:05:37.130Z,2648
2018-01-28T11:06:02.603Z,2620
2018-01-28T11:06:28.095Z,2012
2018-01-28T11:06:53.526Z,2188
2018-01-28T11:07:19.039Z,2588
2018-01-28T11:07:44.597Z,2864
2018-01-28T11:08:10.079Z,2624
2018-01-28T11:08:35.515Z,2504
2018-01-28T11:09:01.026Z,2860
2018-01-28T11:09:26.564Z,3404
2018-01-28T11:09:52.052Z,4364
2018-01-28T11:10:17.553Z,4428
2018-01-28T11:10:42.999Z,3744
2018-01-28T11:11:08.504Z,3652
2018-01-28T11:11:33.989Z,3924
2018-01-28T11:11:59.515Z,3152
2018-01-28T11:12:24.973Z,2716
2018-01-28T11:12:50.448Z,2576
2018-01-28T11:13:15.943Z,3380
2018-01-28T11:13:41.440Z,3144
2018-01-28T11:14:06.907Z,3376
2018-01-28T11:14:32.440Z,3800
2018-01-28T11:14:57.906Z,3828
2018-01-28T11:15:23.447Z,3808
2018-01-28T11:15:48.922Z,3924
2018-01-28T11:16:14.396Z,4600
2018-01-28T11:16:39.888Z,4948
2018-01-28T11:17:05.381Z,5192
2018-01-28T11:17:31.006Z,5380
2018-01-28T11:17:56.364Z,5420
2018-01-28T11:18:21.821Z,4888
2018-01-28T11:18:47.325Z,5112
2018-01-28T11:19:12.870Z,4784
2018-01-28T11:19:38.221Z,4672
2018-01-28T11:21:04.980Z,5860
2018-01-28T11:21:30.488Z,5324
2018-01-28T11:21:55.915Z,5028
2018-01-28T11:22:21.380Z,5128
2018-01-28T11:23:30.086Z,4964
2018-01-28T11:23:55.583Z,4652
2018-01-28T11:24:21.064Z,4772
2018-01-28T11:24:46.551Z,4732
2018-01-28T11:25:11.975Z,4848
2018-01-28T11:25:37.475Z,4936
2018-01-28T11:26:02.906Z,4532
2018-01-28T11:26:28.468Z,4428
2018-01-28T11:26:53.953Z,4032
2018-01-28T11:27:19.450Z,3960
2018-01-28T11:27:44.960Z,3992
2018-01-28T11:28:10.417Z,3640
2018-01-28T11:28:35.871Z,3292
2018-01-28T11:29:01.421Z,3856
2018-01-28T11:29:26.897Z,4096
2018-01-28T11:29:52.369Z,4236
2018-01-28T11:30:17.880Z,4448
2018-01-28T11:30:43.389Z,4248